Time;durP1;ratioP1;P1;durP2;ratioP2;P2;SDS_P1;SDS_P2;PMS_P1;PMS_P2;Temp;Humidity;BMP_temperature;BMP_pressure;BME280_temperature;BME280_humidity;BME280_pressure;Samples;Min_cycle;Max_cycle;Signal;HPM_P1;HPM_P2
2021/03/17 00:00:54;;;;;;;2.33;2.13;;;;;;;21.09;47.02;101233.41;4954191;28;20070;-61
2021/03/17 00:03:20;;;;;;;1.88;1.73;;;;;;;21.09;47.17;101225.38;4953070;28;20030;-62
2021/03/17 00:05:47;;;;;;;2.20;2.00;;;;;;;21.09;46.99;101228.94;4959014;28;20027;-62
2021/03/17 00:08:14;;;;;;;3.42;2.13;;;;;;;21.06;47.19;101226.38;4953513;28;20184;-61
2021/03/17 00:10:42;;;;;;;1.98;1.80;;;;;;;21.07;47.13;101230.78;4970430;28;20026;-61
2021/03/17 00:13:08;;;;;;;2.05;1.40;;;;;;;21.08;47.29;101226.31;4956138;28;20042;-62
2021/03/17 00:15:36;;;;;;;2.92;2.30;;;;;;;21.08;47.05;101224.50;4954054;28;20054;-62
2021/03/17 00:18:03;;;;;;;2.78;1.63;;;;;;;21.08;47.17;101227.19;4958130;28;20385;-62
2021/03/17 00:20:29;;;;;;;2.58;1.42;;;;;;;21.07;47.10;101228.13;4956958;28;20027;-62
2021/03/17 00:22:55;;;;;;;2.00;1.88;;;;;;;21.09;47.07;101225.38;4956085;28;20049;-61
2021/03/17 00:25:22;;;;;;;2.47;2.25;;;;;;;21.09;47.05;101228.94;4955132;28;20023;-63
2021/03/17 00:27:47;;;;;;;2.03;1.80;;;;;;;21.09;47.12;101228.94;4950718;28;20093;-62
2021/03/17 00:30:13;;;;;;;2.83;1.40;;;;;;;21.11;47.10;101228.88;4955837;28;20023;-61
2021/03/17 00:32:38;;;;;;;2.58;2.20;;;;;;;21.11;47.19;101234.22;4958557;28;20039;-62
2021/03/17 00:35:04;;;;;;;1.52;1.42;;;;;;;21.12;47.10;101228.81;4957134;28;20033;-62
2021/03/17 00:37:29;;;;;;;2.15;1.88;;;;;;;21.11;47.13;101229.72;4953812;28;20031;-61
2021/03/17 00:39:55;;;;;;;3.10;2.25;;;;;;;21.13;47.14;101226.97;4954178;28;20027;-62
2021/03/17 00:42:20;;;;;;;2.47;2.05;;;;;;;21.13;47.06;101227.84;4951590;28;20027;-61
2021/03/17 00:44:45;;;;;;;1.88;1.65;;;;;;;21.15;47.05;101234.00;4951863;28;20042;-62
2021/03/17 00:47:11;;;;;;;1.85;1.65;;;;;;;21.14;47.07;101226.91;4965698;28;20039;-62
2021/03/17 00:49:36;;;;;;;1.75;1.63;;;;;;;21.14;47.12;101229.59;4956716;28;20028;-61
2021/03/17 00:52:01;;;;;;;3.75;2.00;;;;;;;21.14;47.18;101229.59;4969968;28;20039;-62
2021/03/17 00:54:27;;;;;;;1.92;1.63;;;;;;;21.15;47.02;101228.63;4956536;28;20038;-62
2021/03/17 00:56:52;;;;;;;2.10;1.88;;;;;;;21.17;47.07;101230.41;4956186;28;20057;-62
2021/03/17 00:59:18;;;;;;;1.70;1.60;;;;;;;21.17;47.15;101227.72;4952088;28;20031;-61
2021/03/17 01:01:43;;;;;;;1.75;1.65;;;;;;;21.18;47.10;101230.34;4954367;28;20023;-62
2021/03/17 01:04:08;;;;;;;2.28;1.90;;;;;;;21.20;47.03;101228.44;4954786;28;20094;-62
2021/03/17 01:06:33;;;;;;;1.60;1.50;;;;;;;21.21;47.13;101230.16;4954431;28;20484;-61
2021/03/17 01:08:59;;;;;;;2.38;1.95;;;;;;;21.21;47.06;101221.28;4954107;28;20497;-61
2021/03/17 01:11:24;;;;;;;1.88;1.73;;;;;;;21.20;47.24;101233.81;4957681;28;20138;-62
2021/03/17 01:13:50;;;;;;;1.77;1.67;;;;;;;21.21;47.12;101222.13;4951541;28;20044;-62
2021/03/17 01:16:16;;;;;;;2.78;2.22;;;;;;;21.23;47.09;101232.78;4970339;28;20023;-62
2021/03/17 01:18:41;;;;;;;1.55;1.45;;;;;;;21.24;47.13;101224.66;4966117;28;20476;-61
2021/03/17 01:21:06;;;;;;;2.20;1.60;;;;;;;21.25;46.87;101230.91;4954194;28;20078;-62
2021/03/17 01:23:32;;;;;;;2.55;1.92;;;;;;;21.25;47.05;101233.59;4954279;28;20122;-62
2021/03/17 01:25:57;;;;;;;2.30;1.77;;;;;;;21.25;47.05;101230.91;4955243;28;20042;-62
2021/03/17 01:28:22;;;;;;;1.67;1.58;;;;;;;21.25;47.04;101221.06;4956921;28;20527;-62
2021/03/17 01:30:50;;;;;;;2.60;1.98;;;;;;;21.28;47.02;101233.47;4954885;28;20016;-61
2021/03/17 01:33:18;;;;;;;1.75;1.65;;;;;;;21.28;46.94;101228.09;4951116;28;20035;-61
2021/03/17 01:35:45;;;;;;;2.35;1.92;;;;;;;21.28;47.02;101220.06;4953750;28;20032;-62
2021/03/17 01:38:11;;;;;;;1.77;1.67;;;;;;;21.28;46.97;101225.41;4966588;28;20102;-61
2021/03/17 01:40:38;;;;;;;2.03;1.90;;;;;;;21.30;47.03;101231.56;4956455;28;20201;-61
2021/03/17 01:43:03;;;;;;;2.28;1.75;;;;;;;21.31;46.99;101227.97;4956859;28;20031;-62
2021/03/17 01:45:29;;;;;;;1.92;1.63;;;;;;;21.32;47.00;101221.66;4969363;28;20021;-62
2021/03/17 01:47:54;;;;;;;1.60;1.50;;;;;;;21.31;46.98;101227.97;4954957;28;20041;-62
2021/03/17 01:50:28;;;;;;;1.67;1.58;;;;;;;21.30;46.95;101231.56;4955379;28;20058;-62
2021/03/17 01:52:54;;;;;;;1.77;1.45;;;;;;;21.33;47.02;101233.22;4954477;28;20138;-62
2021/03/17 01:55:20;;;;;;;1.40;1.30;;;;;;;21.32;47.07;101232.38;4976563;28;20019;-60
2021/03/17 01:57:46;;;;;;;1.88;1.63;;;;;;;21.33;46.98;101227.88;4956055;28;20481;-62
2021/03/17 02:00:14;;;;;;;2.38;1.73;;;;;;;21.33;46.99;101236.81;4959218;28;20027;-61
2021/03/17 02:02:40;;;;;;;2.58;1.95;;;;;;;21.33;46.98;101234.13;4967379;28;20065;-62
2021/03/17 02:05:10;;;;;;;2.17;1.98;;;;;;;21.32;47.07;101227.03;4972743;28;20102;-62
2021/03/17 02:07:35;;;;;;;2.20;2.10;;;;;;;21.33;46.97;101223.38;4956406;28;20437;-61
2021/03/17 02:10:01;;;;;;;1.67;1.58;;;;;;;21.31;47.01;101219.91;4957789;28;20046;-62
2021/03/17 02:13:05;;;;;;;2.40;1.75;;;;;;;21.32;47.03;101221.66;4957811;28;20034;-61
2021/03/17 02:16:06;;;;;;;1.52;1.38;;;;;;;21.32;47.09;101221.66;4954818;28;20039;-61
2021/03/17 02:18:56;;;;;;;2.63;1.77;;;;;;;21.32;47.06;101218.97;4951410;28;20527;-62
2021/03/17 02:21:40;;;;;;;1.95;1.50;;;;;;;21.34;47.02;101227.81;4955704;28;20140;-62
2021/03/17 02:24:33;;;;;;;2.05;1.75;;;;;;;21.34;46.98;101224.28;4956793;28;20485;-62
2021/03/17 02:27:24;;;;;;;2.20;1.77;;;;;;;21.33;46.95;101217.13;4957992;28;20023;-62
2021/03/17 02:30:18;;;;;;;1.95;1.75;;;;;;;21.33;47.00;101215.34;4955287;28;20042;-61
2021/03/17 02:33:35;;;;;;;1.52;1.42;;;;;;;21.32;46.92;101210.91;4954702;28;20031;-62
2021/03/17 02:36:25;;;;;;;3.10;1.55;;;;;;;21.32;46.99;101213.59;4951731;28;20041;-61
2021/03/17 02:39:25;;;;;;;2.28;1.60;;;;;;;21.33;47.04;101218.03;4964397;28;20615;-61
2021/03/17 02:42:12;;;;;;;1.70;1.60;;;;;;;21.34;47.04;101218.91;4937110;28;20404;-60
2021/03/17 02:44:52;;;;;;;2.65;1.73;;;;;;;21.33;46.94;101218.03;4966763;28;20074;-62
2021/03/17 02:47:18;;;;;;;1.60;1.50;;;;;;;21.33;46.98;101223.38;4966847;28;20083;-62
2021/03/17 02:49:46;;;;;;;1.60;1.50;;;;;;;21.33;46.90;101223.38;4957701;28;20377;-61
2021/03/17 02:52:12;;;;;;;1.40;1.30;;;;;;;21.33;46.86;101218.03;4970310;28;20034;-62
2021/03/17 02:54:39;;;;;;;2.58;1.65;;;;;;;21.35;47.04;101231.38;4953890;28;20023;-61
2021/03/17 02:57:17;;;;;;;1.60;1.48;;;;;;;21.34;46.93;101225.13;4969335;28;21779;-61
2021/03/17 02:59:44;;;;;;;1.60;1.50;;;;;;;21.33;46.94;101222.50;4965367;28;20039;-62
2021/03/17 03:02:11;;;;;;;1.70;1.40;;;;;;;21.35;46.99;101226.00;4956263;28;20493;-62
2021/03/17 03:04:36;;;;;;;2.78;1.70;;;;;;;21.34;47.06;101226.94;4953972;28;20035;-61
2021/03/17 03:07:02;;;;;;;2.67;1.52;;;;;;;21.33;46.85;101223.38;4965979;28;20060;-62
2021/03/17 03:09:28;;;;;;;2.05;1.30;;;;;;;21.34;47.11;101224.28;4957222;28;20700;-61
2021/03/17 03:11:56;;;;;;;1.65;1.40;;;;;;;21.34;46.96;101222.44;4955280;28;20035;-61
2021/03/17 03:14:23;;;;;;;1.40;1.30;;;;;;;21.36;46.91;101220.56;4956443;28;20087;-62
2021/03/17 03:16:49;;;;;;;1.90;1.65;;;;;;;21.35;46.91;101218.84;4950767;28;20085;-62
2021/03/17 03:19:16;;;;;;;2.03;1.67;;;;;;;21.35;46.96;101226.88;4967463;28;20555;-61
2021/03/17 03:21:42;;;;;;;2.15;1.35;;;;;;;21.37;46.92;101216.94;4955849;28;20086;-62
2021/03/17 03:24:08;;;;;;;2.42;1.38;;;;;;;21.37;46.86;101224.09;4966334;28;20026;-61
2021/03/17 03:26:35;;;;;;;1.85;1.60;;;;;;;21.37;46.99;101226.78;4957376;28;20043;-61
2021/03/17 03:29:03;;;;;;;1.42;1.33;;;;;;;21.38;46.85;101226.72;4958219;28;20477;-61
2021/03/17 03:31:28;;;;;;;2.33;1.60;;;;;;;21.38;46.81;101226.72;4955508;28;20023;-62
2021/03/17 03:33:54;;;;;;;1.83;1.50;;;;;;;21.39;46.86;101219.56;4955121;28;20050;-61
2021/03/17 03:36:19;;;;;;;1.45;1.30;;;;;;;21.38;46.94;101229.41;4953239;28;20190;-62
2021/03/17 03:38:45;;;;;;;2.15;1.63;;;;;;;21.40;46.89;101238.25;4954866;28;20038;-62
2021/03/17 03:41:10;;;;;;;1.50;1.40;;;;;;;21.39;46.87;101228.47;4955086;28;20641;-61
2021/03/17 03:43:35;;;;;;;1.33;1.23;;;;;;;21.41;46.77;101231.94;4955151;28;20023;-61
2021/03/17 03:46:01;;;;;;;3.08;1.58;;;;;;;21.40;46.92;101224.84;4956900;28;20031;-62
2021/03/17 03:48:26;;;;;;;2.20;1.60;;;;;;;21.43;46.79;101225.63;4956934;28;20409;-62
2021/03/17 03:50:52;;;;;;;2.08;1.33;;;;;;;21.44;46.91;101232.75;4964420;28;20027;-61
2021/03/17 03:53:29;;;;;;;1.70;1.60;;;;;;;21.44;46.60;101230.94;4958326;28;20135;-62
2021/03/17 03:56:03;;;;;;;1.80;1.30;;;;;;;21.46;46.80;101233.53;4958225;28;20485;-62
2021/03/17 03:58:32;;;;;;;1.58;1.30;;;;;;;21.46;46.82;101223.69;4955288;28;20090;-61
2021/03/17 04:01:52;;;;;;;1.77;1.45;;;;;;;21.47;46.79;101228.09;4957307;28;20037;-61
2021/03/17 04:04:20;;;;;;;1.25;1.15;;;;;;;21.48;46.77;101231.69;4927250;29;20123;-62
2021/03/17 04:06:54;;;;;;;1.70;1.60;;;;;;;21.48;46.78;101227.16;4917308;29;20486;-62
2021/03/17 04:09:33;;;;;;;1.60;1.50;;;;;;;21.50;46.83;101227.97;4952172;28;20130;-62
2021/03/17 04:12:00;;;;;;;2.17;1.45;;;;;;;21.51;46.78;101234.22;4953655;28;20057;-62
2021/03/17 04:14:28;;;;;;;2.05;1.60;;;;;;;21.50;46.90;101235.13;4967271;28;20085;-62
2021/03/17 04:16:54;;;;;;;1.52;1.25;;;;;;;21.51;46.67;101232.38;4951943;28;20038;-61
2021/03/17 04:19:22;;;;;;;2.28;1.40;;;;;;;21.52;46.70;101230.59;4965501;28;20034;-61
2021/03/17 04:21:48;;;;;;;1.30;1.20;;;;;;;21.54;46.74;101231.38;4955371;28;20507;-62
2021/03/17 04:24:14;;;;;;;1.35;1.20;;;;;;;21.53;46.61;101229.63;4956485;28;20050;-62
2021/03/17 04:26:40;;;;;;;1.55;1.23;;;;;;;21.55;46.70;101233.13;4963375;28;20034;-62
2021/03/17 04:29:05;;;;;;;1.35;1.20;;;;;;;21.53;46.78;101232.31;4953408;28;20034;-62
2021/03/17 04:31:32;;;;;;;1.42;1.33;;;;;;;21.55;46.74;101233.13;4966811;28;20046;-62
2021/03/17 04:33:59;;;;;;;1.55;1.45;;;;;;;21.56;46.61;101233.97;4956614;28;20132;-62
2021/03/17 04:36:26;;;;;;;1.60;1.50;;;;;;;21.54;46.69;101237.63;4953432;28;20109;-62
2021/03/17 04:38:51;;;;;;;1.67;1.58;;;;;;;21.54;46.73;101234.94;4956237;28;20107;-62
2021/03/17 04:41:17;;;;;;;1.73;1.25;;;;;;;21.56;46.63;101236.66;4963738;28;20030;-61
2021/03/17 04:43:43;;;;;;;1.25;0.93;;;;;;;21.56;46.69;101240.22;4956192;28;20614;-62
2021/03/17 04:46:10;;;;;;;2.00;1.27;;;;;;;21.56;46.72;101244.72;4962971;28;20015;-62
2021/03/17 04:48:38;;;;;;;1.85;1.45;;;;;;;21.57;46.73;101238.44;4964786;28;20114;-62
2021/03/17 04:51:05;;;;;;;1.55;1.45;;;;;;;21.57;46.78;101235.75;4951299;28;20027;-61
2021/03/17 04:53:30;;;;;;;1.27;1.17;;;;;;;21.57;46.72;101236.59;4957694;28;20035;-62
2021/03/17 04:55:55;;;;;;;1.50;1.40;;;;;;;21.56;46.73;101234.88;4952050;28;20023;-61
2021/03/17 04:58:23;;;;;;;1.27;1.00;;;;;;;21.56;46.64;101245.59;4950542;28;20049;-61
2021/03/17 05:00:49;;;;;;;1.73;1.33;;;;;;;21.56;46.64;101244.72;4942828;28;20079;-61
2021/03/17 05:03:17;;;;;;;1.38;1.27;;;;;;;21.57;46.84;101246.47;4956476;28;20035;-62
2021/03/17 05:05:43;;;;;;;1.40;1.30;;;;;;;21.58;46.71;101249.09;4956185;28;20077;-63
2021/03/17 05:08:09;;;;;;;1.88;1.70;;;;;;;21.36;44.29;101254.56;4950117;28;20426;-61
2021/03/17 05:10:36;;;;;;;1.80;1.65;;;;;;;21.11;41.65;101250.31;4961888;28;20035;-60
2021/03/17 05:13:02;;;;;;;3.13;1.92;;;;;;;20.56;39.30;101249.94;4957317;28;20027;-60
2021/03/17 05:15:28;;;;;;;2.58;1.90;;;;;;;20.08;38.13;101257.25;4956796;28;20091;-60
2021/03/17 05:17:53;;;;;;;6.00;2.17;;;;;;;19.62;36.91;101258.06;4954387;28;20078;-60
2021/03/17 05:20:20;;;;;;;4.13;2.50;;;;;;;18.91;36.31;101266.81;4957398;28;20032;-59
2021/03/17 05:22:47;;;;;;;3.67;2.28;;;;;;;18.82;35.33;101262.66;4960180;28;20034;-60
2021/03/17 05:25:17;;;;;;;3.28;2.05;;;;;;;18.82;35.32;101266.22;4968934;28;20058;-59
2021/03/17 05:27:46;;;;;;;4.25;2.95;;;;;;;18.44;35.50;101261.22;4965661;28;20545;-59
2021/03/17 05:30:13;;;;;;;2.60;1.80;;;;;;;17.71;34.95;101268.81;4954397;28;20027;-59
2021/03/17 05:32:40;;;;;;;4.95;2.63;;;;;;;17.44;34.65;101274.88;4960377;28;20033;-59
2021/03/17 05:35:09;;;;;;;5.13;2.55;;;;;;;17.20;34.91;101271.09;4955974;28;20029;-59
2021/03/17 05:37:35;;;;;;;3.78;2.20;;;;;;;17.05;34.77;101265.28;4952428;28;20532;-60
2021/03/17 05:40:00;;;;;;;5.75;2.72;;;;;;;16.90;34.79;101273.63;4959701;28;20023;-59
2021/03/17 05:42:27;;;;;;;4.55;2.28;;;;;;;17.07;34.78;101272.38;4952736;28;20612;-59
2021/03/17 05:44:53;;;;;;;3.60;1.92;;;;;;;17.01;34.64;101276.91;4959146;28;20015;-59
2021/03/17 05:47:20;;;;;;;4.95;2.08;;;;;;;16.10;35.39;101280.88;4959269;28;20055;-59
2021/03/17 05:49:46;;;;;;;4.50;1.90;;;;;;;16.08;35.34;101281.84;4960973;28;20023;-59
2021/03/17 05:52:14;;;;;;;3.85;1.70;;;;;;;15.71;35.66;101281.66;4953638;28;20050;-59
2021/03/17 05:54:39;;;;;;;3.08;1.98;;;;;;;15.78;35.63;101280.63;4952465;28;20474;-60
2021/03/17 05:57:05;;;;;;;5.85;2.45;;;;;;;15.70;35.70;101284.41;4935701;28;20038;-60
2021/03/17 05:59:31;;;;;;;4.65;1.75;;;;;;;15.89;35.60;101293.72;4962301;28;20034;-59
2021/03/17 06:01:57;;;;;;;3.90;1.70;;;;;;;16.13;35.23;101286.13;4956561;28;20027;-59
2021/03/17 06:04:27;;;;;;;2.63;1.58;;;;;;;16.21;35.28;101287.75;4955482;28;20039;-60
2021/03/17 06:06:56;;;;;;;5.30;1.50;;;;;;;16.99;36.00;101294.72;4967082;28;20035;-61
2021/03/17 06:09:22;;;;;;;2.53;1.38;;;;;;;17.52;38.75;101301.34;4969704;28;20042;-62
2021/03/17 06:11:49;;;;;;;4.28;1.77;;;;;;;17.83;39.58;101294.22;4966580;28;20610;-61
2021/03/17 06:14:18;;;;;;;4.00;1.88;;;;;;;18.07;39.26;101305.97;4966279;28;20089;-62
2021/03/17 06:16:44;;;;;;;2.58;1.50;;;;;;;18.25;39.24;101295.69;4952289;28;21102;-61
2021/03/17 06:19:13;;;;;;;3.47;1.50;;;;;;;18.41;39.11;101300.53;4954127;28;20040;-62
2021/03/17 06:21:39;;;;;;;6.70;2.00;;;;;;;18.55;39.08;101302.75;4972320;28;20082;-61
2021/03/17 06:24:05;;;;;;;3.20;1.40;;;;;;;18.65;39.13;101295.31;4955414;28;20033;-61
2021/03/17 06:26:34;;;;;;;1.63;1.52;;;;;;;18.76;39.24;101306.50;4975295;28;20501;-61
2021/03/17 06:28:59;;;;;;;2.92;1.85;;;;;;;18.89;39.09;101306.06;4957962;28;20038;-62
2021/03/17 06:31:25;;;;;;;2.97;1.33;;;;;;;18.95;39.37;101308.56;4972156;28;20401;-61
2021/03/17 06:33:53;;;;;;;2.65;1.30;;;;;;;19.00;39.33;101314.59;4954132;28;20143;-61
2021/03/17 06:36:24;;;;;;;2.13;1.50;;;;;;;19.04;39.48;101310.91;4955490;28;20031;-61
2021/03/17 06:38:50;;;;;;;1.67;1.30;;;;;;;19.13;39.70;101315.09;4957543;28;20065;-61
2021/03/17 06:41:16;;;;;;;3.45;2.05;;;;;;;19.18;39.68;101322.94;4959132;28;20031;-62
2021/03/17 06:43:43;;;;;;;2.63;1.40;;;;;;;19.22;39.66;101320.13;4962053;28;20019;-60
2021/03/17 06:46:14;;;;;;;5.03;1.70;;;;;;;19.28;39.71;101319.03;4964597;28;20074;-62
2021/03/17 06:48:40;;;;;;;2.05;1.48;;;;;;;19.32;39.85;101326.03;4957357;28;20023;-60
2021/03/17 06:51:10;;;;;;;6.18;1.40;;;;;;;19.39;39.99;101325.78;4958118;28;20797;-62
2021/03/17 06:53:36;;;;;;;2.53;1.40;;;;;;;19.43;40.14;101330.09;4960041;28;20035;-62
2021/03/17 06:56:11;;;;;;;3.08;1.70;;;;;;;19.46;39.99;101322.84;4955758;28;20027;-61
2021/03/17 06:58:41;;;;;;;3.35;1.27;;;;;;;19.51;40.38;101322.69;4954619;28;20115;-61
2021/03/17 07:01:45;;;;;;;3.00;1.63;;;;;;;19.55;40.32;101329.66;4960240;28;20038;-61
2021/03/17 07:04:12;;;;;;;4.57;1.40;;;;;;;19.59;40.27;101328.63;4964327;28;20418;-61
2021/03/17 07:06:41;;;;;;;1.95;1.42;;;;;;;19.64;40.56;101330.25;4959514;28;20026;-60
2021/03/17 07:09:16;;;;;;;2.15;1.58;;;;;;;19.68;40.44;101322.06;4958447;28;20504;-62
2021/03/17 07:11:42;;;;;;;2.28;1.42;;;;;;;19.73;40.69;101335.25;4962122;28;20042;-61
2021/03/17 07:14:07;;;;;;;1.55;1.45;;;;;;;19.76;40.64;101335.13;4954671;28;20405;-62
2021/03/17 07:16:41;;;;;;;3.88;1.60;;;;;;;19.79;40.59;101332.34;4958379;28;20031;-61
2021/03/17 07:19:08;;;;;;;3.20;2.25;;;;;;;19.83;40.64;101335.78;4967431;28;20034;-61
2021/03/17 07:21:38;;;;;;;1.60;1.50;;;;;;;19.88;40.85;101333.81;4956277;28;20031;-61
2021/03/17 07:24:05;;;;;;;3.63;1.42;;;;;;;19.91;40.84;101333.69;4961739;28;20481;-61
2021/03/17 07:26:33;;;;;;;4.47;1.70;;;;;;;19.95;40.78;101329.97;4961060;28;20027;-60
2021/03/17 07:29:13;;;;;;;2.75;1.67;;;;;;;19.97;40.82;101336.13;4957235;28;20023;-61
2021/03/17 07:31:41;;;;;;;1.27;1.17;;;;;;;20.04;40.90;101342.16;4957265;28;20022;-61
2021/03/17 07:34:09;;;;;;;4.65;1.20;;;;;;;20.05;40.97;101341.25;4964181;28;20404;-61
2021/03/17 07:36:50;;;;;;;1.10;1.00;;;;;;;20.08;40.92;101325.03;4955022;28;20035;-61
2021/03/17 07:39:29;;;;;;;;;;;;;;;20.13;40.94;101333.78;4968304;28;20031;-63
2021/03/17 07:41:56;;;;;;;1.70;1.40;;;;;;;20.25;42.07;101326.19;4950452;28;20024;-67
2021/03/17 07:44:23;;;;;;;2.58;1.73;;;;;;;20.43;42.88;101329.03;4964696;28;20087;-68
2021/03/17 07:46:51;;;;;;;3.05;1.77;;;;;;;20.75;43.63;101329.56;4956626;28;20037;-67
2021/03/17 07:49:17;;;;;;;2.15;1.42;;;;;;;20.75;43.60;101338.44;4956795;28;20109;-64
2021/03/17 07:51:48;;;;;;;3.03;1.90;;;;;;;20.83;43.65;101338.13;4957624;28;20110;-67
2021/03/17 07:54:14;;;;;;;;;;;;;;;20.97;43.60;101334.91;4972678;28;20039;-67
2021/03/17 07:56:41;;;;;;;3.78;2.05;;;;;;;21.07;43.78;101332.69;4958066;28;19919;-65
2021/03/17 07:59:08;;;;;;;2.22;1.33;;;;;;;21.14;43.83;101334.19;4968242;28;20031;-65
2021/03/17 08:01:34;;;;;;;3.83;1.55;;;;;;;21.19;43.33;101338.47;4953600;28;20583;-65
2021/03/17 08:04:00;;;;;;;2.58;1.77;;;;;;;21.21;43.46;101340.13;4937908;28;20050;-66
2021/03/17 08:06:26;;;;;;;2.75;1.70;;;;;;;21.27;43.58;101336.31;4949568;28;20433;-66
2021/03/17 08:08:51;;;;;;;1.58;1.48;;;;;;;21.38;44.01;101336.72;4959974;28;20058;-65
2021/03/17 08:11:19;;;;;;;4.35;1.83;;;;;;;21.39;43.75;101338.47;4951508;28;20035;-65
2021/03/17 08:13:47;;;;;;;2.78;1.45;;;;;;;21.37;43.56;101343.03;4951083;28;20030;-66
2021/03/17 08:16:17;;;;;;;1.85;1.58;;;;;;;21.37;43.59;101340.34;4950537;28;20037;-65
2021/03/17 08:18:46;;;;;;;4.28;1.88;;;;;;;21.37;43.35;101352.88;4941555;28;20600;-65
2021/03/17 08:21:12;;;;;;;12.75;1.90;;;;;;;21.33;43.36;101344.09;4949191;28;20054;-67
2021/03/17 08:23:42;;;;;;;2.10;1.77;;;;;;;21.34;43.18;101340.47;4948835;28;20109;-67
2021/03/17 08:26:10;;;;;;;4.30;1.92;;;;;;;21.33;43.22;101338.75;4966907;28;20115;-67
2021/03/17 08:28:52;;;;;;;2.45;1.40;;;;;;;21.34;43.15;101343.16;4958610;28;20118;-67
2021/03/17 08:31:36;;;;;;;2.38;1.40;;;;;;;21.33;43.03;101336.06;4965879;28;20023;-67
2021/03/17 08:34:20;;;;;;;2.05;1.85;;;;;;;21.30;43.16;101340.69;4953674;28;20031;-67
2021/03/17 08:36:50;;;;;;;2.17;1.52;;;;;;;21.31;43.06;101335.28;4950205;28;20027;-68
2021/03/17 08:39:36;;;;;;;2.13;1.52;;;;;;;21.30;43.06;101346.91;4947942;28;20572;-65
2021/03/17 08:42:02;;;;;;;1.23;1.13;;;;;;;21.27;43.08;101347.94;4951196;28;20116;-69
2021/03/17 08:44:40;;;;;;;1.73;1.52;;;;;;;21.26;43.14;101340.84;4950240;28;20019;-69
2021/03/17 08:47:22;;;;;;;2.50;1.58;;;;;;;21.26;43.12;101338.16;4957204;28;21732;-66
2021/03/17 08:49:51;;;;;;;2.83;1.60;;;;;;;21.26;43.14;101339.94;4957894;28;20441;-67
2021/03/17 08:52:47;;;;;;;3.20;1.73;;;;;;;21.25;43.24;101340.91;4949436;28;20089;-67
2021/03/17 08:55:18;;;;;;;1.38;1.25;;;;;;;21.24;43.10;101344.53;4969810;28;20023;-69
2021/03/17 08:58:06;;;;;;;3.88;2.08;;;;;;;21.24;43.14;101344.53;4968763;28;20549;-69
2021/03/17 09:00:51;;;;;;;1.85;1.75;;;;;;;21.23;43.21;101345.44;4943727;28;20020;-67
2021/03/17 09:03:34;;;;;;;1.40;1.30;;;;;;;21.24;43.12;101352.56;4967181;28;20049;-67
2021/03/17 09:06:12;;;;;;;3.67;1.70;;;;;;;21.23;43.11;101354.38;4950092;28;20066;-69
2021/03/17 09:08:49;;;;;;;3.53;1.95;;;;;;;21.22;43.05;101354.44;4961203;28;20059;-68
2021/03/17 09:11:30;;;;;;;2.97;1.63;;;;;;;21.21;43.08;101353.56;4966845;28;20047;-65
2021/03/17 09:14:03;;;;;;;1.90;1.13;;;;;;;21.21;42.91;101352.69;4951223;28;20114;-67
2021/03/17 09:16:30;;;;;;;2.17;1.85;;;;;;;21.18;43.28;101352.81;4933649;28;20034;-67
2021/03/17 09:19:13;;;;;;;2.13;1.45;;;;;;;21.20;43.13;101356.31;4953592;28;20033;-68
2021/03/17 09:21:41;;;;;;;4.22;1.90;;;;;;;21.22;43.27;101360.69;4954905;28;20019;-67
2021/03/17 09:24:28;;;;;;;2.33;1.42;;;;;;;21.21;43.14;101358.06;4953926;28;20482;-69
2021/03/17 09:27:01;;;;;;;2.30;1.50;;;;;;;21.20;43.21;101361.69;4953622;28;20269;-66
2021/03/17 09:29:26;;;;;;;2.63;1.40;;;;;;;21.21;43.12;101361.59;4955875;28;20082;-68
2021/03/17 09:31:55;;;;;;;1.65;1.50;;;;;;;21.22;43.18;101365.16;4955624;28;20031;-65
2021/03/17 09:34:32;;;;;;;1.55;1.27;;;;;;;21.22;43.18;101365.16;4954422;28;20023;-66
2021/03/17 09:37:05;;;;;;;1.70;1.52;;;;;;;21.20;43.22;101367.91;4956521;28;20034;-65
2021/03/17 09:39:31;;;;;;;2.40;1.52;;;;;;;21.23;43.20;101377.63;4950675;28;20021;-66
2021/03/17 09:41:57;;;;;;;3.20;1.27;;;;;;;21.25;43.16;101381.13;4940416;28;20015;-68
2021/03/17 09:44:22;;;;;;;2.15;1.75;;;;;;;21.24;42.94;101379.41;4959920;28;20077;-67
2021/03/17 09:46:55;;;;;;;3.05;1.77;;;;;;;21.23;43.18;101383.00;4960979;28;20031;-66
2021/03/17 09:49:22;;;;;;;1.75;1.42;;;;;;;21.25;43.23;101386.50;4959384;28;20030;-66
2021/03/17 09:51:49;;;;;;;2.65;1.40;;;;;;;21.25;43.18;101378.44;4956134;28;20023;-67
2021/03/17 09:54:16;;;;;;;2.72;1.38;;;;;;;21.25;43.16;101383.81;4957189;28;20035;-67
2021/03/17 09:56:43;;;;;;;2.85;1.50;;;;;;;21.26;43.15;101381.06;4954508;28;20015;-67
2021/03/17 09:59:20;;;;;;;1.38;1.20;;;;;;;21.28;43.28;101386.38;4970559;28;20022;-68
2021/03/17 10:01:56;;;;;;;2.50;1.77;;;;;;;21.27;43.26;101381.91;4944405;28;20031;-68
2021/03/17 10:04:26;;;;;;;3.40;1.73;;;;;;;21.30;43.13;101380.94;4956103;28;20082;-67
2021/03/17 10:06:52;;;;;;;2.03;1.60;;;;;;;21.31;43.24;101380.88;4954550;28;20127;-68
2021/03/17 10:09:18;;;;;;;1.92;1.73;;;;;;;21.31;43.14;101386.25;4959112;28;20101;-66
2021/03/17 10:11:45;;;;;;;2.50;1.58;;;;;;;21.30;43.19;101384.47;4957461;28;20031;-67
2021/03/17 10:14:13;;;;;;;2.97;2.00;;;;;;;21.32;43.20;101385.28;4954584;28;20082;-67
2021/03/17 10:16:38;;;;;;;2.50;1.42;;;;;;;21.32;43.21;101390.66;4951351;28;20027;-68
2021/03/17 10:19:04;;;;;;;2.15;1.58;;;;;;;21.33;43.04;101392.41;4959257;28;20504;-66
2021/03/17 10:21:29;;;;;;;2.25;1.45;;;;;;;21.33;43.25;101397.75;4957899;28;20023;-66
2021/03/17 10:23:54;;;;;;;1.42;1.30;;;;;;;21.32;43.21;101393.34;4960793;28;20035;-69
2021/03/17 10:26:20;;;;;;;1.48;1.33;;;;;;;21.33;43.27;101395.06;4951531;28;20065;-67
2021/03/17 10:28:46;;;;;;;3.20;1.40;;;;;;;21.34;43.21;101391.44;4952299;28;20027;-67
2021/03/17 10:31:12;;;;;;;1.70;1.48;;;;;;;21.35;43.33;101393.22;4950513;28;20478;-68
2021/03/17 10:33:37;;;;;;;3.60;1.38;;;;;;;21.35;43.25;101403.06;4949436;28;20037;-67
2021/03/17 10:36:06;;;;;;;2.30;1.20;;;;;;;21.35;43.32;101387.84;4959370;28;20031;-67
2021/03/17 10:38:31;;;;;;;2.15;1.35;;;;;;;21.36;43.26;101394.06;4953674;28;20031;-67
2021/03/17 10:40:57;;;;;;;1.98;1.50;;;;;;;21.36;43.38;101392.28;4944221;28;20023;-67
2021/03/17 10:43:30;;;;;;;2.40;1.25;;;;;;;21.36;43.26;101386.91;4950936;28;20038;-66
2021/03/17 10:45:57;;;;;;;2.67;1.70;;;;;;;21.35;43.34;101393.22;4953204;28;20027;-68
2021/03/17 10:48:24;;;;;;;1.63;1.48;;;;;;;21.36;43.13;101389.59;4951035;28;20121;-65
2021/03/17 10:50:51;;;;;;;2.40;1.40;;;;;;;21.36;43.45;101394.94;4951965;28;20105;-64
2021/03/17 10:53:24;;;;;;;2.35;1.33;;;;;;;21.37;43.45;101391.31;4965585;23;20042;-62
2021/03/17 10:55:50;;;;;;;1.80;1.63;;;;;;;21.36;43.38;101394.94;4966927;28;20027;-65
2021/03/17 10:58:18;;;;;;;1.90;1.40;;;;;;;21.36;43.43;101403.00;4970051;28;20023;-66
2021/03/17 11:00:45;;;;;;;3.08;1.30;;;;;;;21.37;43.33;101402.06;4973652;28;20023;-65
2021/03/17 11:03:21;;;;;;;1.90;1.42;;;;;;;21.36;43.43;101405.69;4968803;28;20551;-65
2021/03/17 11:05:47;;;;;;;1.70;1.60;;;;;;;21.37;43.57;101396.69;4970983;28;20018;-65
2021/03/17 11:08:12;;;;;;;1.40;1.30;;;;;;;21.37;43.27;101402.06;4970343;28;20039;-65
2021/03/17 11:10:52;;;;;;;2.08;1.63;;;;;;;21.38;43.41;101409.16;4972458;28;20096;-65
2021/03/17 11:13:18;;;;;;;1.10;1.00;;;;;;;21.38;43.47;101408.31;4969550;28;20031;-65
2021/03/17 11:15:46;;;;;;;1.97;1.60;;;;;;;21.37;43.44;101402.06;4971894;28;20671;-66
2021/03/17 11:18:20;;;;;;;1.40;1.30;;;;;;;21.35;43.50;101393.22;4970339;28;20026;-65
2021/03/17 11:20:45;;;;;;;2.35;1.52;;;;;;;21.36;43.59;101396.75;4970468;28;20025;-66
2021/03/17 11:23:34;;;;;;;2.08;1.45;;;;;;;21.38;43.44;101398.41;4970446;28;20031;-66
2021/03/17 11:26:00;;;;;;;1.42;1.17;;;;;;;21.38;43.51;101401.09;4990535;28;20094;-65
2021/03/17 11:28:27;;;;;;;1.77;1.10;;;;;;;21.36;43.46;101400.31;4971526;28;20473;-65
2021/03/17 11:30:56;;;;;;;1.95;1.55;;;;;;;21.38;43.50;101401.09;4972035;28;20034;-65
2021/03/17 11:33:24;;;;;;;2.65;1.77;;;;;;;21.39;43.42;101410.91;4970247;28;20050;-65
2021/03/17 11:35:52;;;;;;;1.40;1.30;;;;;;;21.39;43.61;101410.91;4970707;28;20045;-66
2021/03/17 11:38:18;;;;;;;1.50;1.40;;;;;;;21.38;43.62;101416.34;4970481;28;20061;-66